Time;durP1;ratioP1;P1;durP2;ratioP2;P2;SDS_P1;SDS_P2;PMS_P1;PMS_P2;Temp;Humidity;BMP_temperature;BMP_pressure;BME280_temperature;BME280_humidity;BME280_pressure;Samples;Min_cycle;Max_cycle;Signal;HPM_P1;HPM_P2
2021/12/20 00:00:52;;;;;;;17.70;4.72;;;;;;;5.30;99.95;102457.47;4994843;28;20045;-80
2021/12/20 00:03:17;;;;;;;18.88;5.60;;;;;;;5.23;100.00;102456.94;4997164;28;20063;-80
2021/12/20 00:05:43;;;;;;;12.27;5.20;;;;;;;5.25;100.00;102449.16;5002519;28;20046;-80
2021/12/20 00:08:09;;;;;;;15.40;6.13;;;;;;;5.20;100.00;102446.84;5018245;28;20049;-80
2021/12/20 00:10:34;;;;;;;13.30;4.90;;;;;;;5.15;100.00;102443.66;5000803;28;20042;-81
2021/12/20 00:13:00;;;;;;;12.98;4.75;;;;;;;5.22;100.00;102450.16;5021581;28;20042;-81
2021/12/20 00:15:25;;;;;;;18.27;4.97;;;;;;;5.24;99.77;102432.91;5001020;28;20385;-80
2021/12/20 00:17:51;;;;;;;10.85;4.13;;;;;;;5.11;99.89;102449.06;5015736;28;20038;-80
2021/12/20 00:20:17;;;;;;;20.13;6.03;;;;;;;5.14;99.91;102447.16;5016016;28;20034;-79
2021/12/20 00:22:43;;;;;;;26.60;5.57;;;;;;;5.17;98.62;102436.69;5013275;28;20026;-80
2021/12/20 00:25:10;;;;;;;14.60;4.57;;;;;;;5.20;97.66;102451.16;5026988;28;20100;-80
2021/12/20 00:27:37;;;;;;;18.05;4.00;;;;;;;5.20;97.58;102446.84;5020500;28;20069;-80
2021/12/20 00:30:07;;;;;;;20.63;4.75;;;;;;;5.08;97.18;102455.16;5024712;28;20056;-80
2021/12/20 00:32:33;;;;;;;12.68;3.70;;;;;;;5.05;97.70;102448.47;5016398;28;20038;-80
2021/12/20 00:34:59;;;;;;;18.52;3.83;;;;;;;5.16;97.00;102440.19;5023248;28;20397;-80
2021/12/20 00:40:21;;;;;;;18.73;4.82;;;;;;;5.15;97.32;102433.38;5018300;28;20496;-80
2021/12/20 00:42:58;;;;;;;14.93;3.38;;;;;;;5.21;97.33;102432.22;5018101;28;20105;-80
2021/12/20 00:45:27;;;;;;;20.42;4.50;;;;;;;5.20;97.44;102430.56;5006662;28;20030;-80
2021/12/20 00:47:53;;;;;;;19.23;3.80;;;;;;;5.15;97.42;102433.38;5015644;28;20027;-80
2021/12/20 00:50:21;;;;;;;18.95;4.75;;;;;;;5.22;97.73;102437.28;5002272;28;20042;-80
2021/12/20 00:52:48;;;;;;;15.50;4.07;;;;;;;5.24;97.37;102422.59;5005034;28;20335;-81
2021/12/20 00:55:16;;;;;;;19.17;4.90;;;;;;;5.20;97.38;102436.53;5000609;28;20388;-80
2021/12/20 00:57:47;;;;;;;12.82;4.22;;;;;;;5.20;97.48;102431.41;5022751;28;20109;-81
2021/12/20 01:00:15;;;;;;;15.63;4.00;;;;;;;5.15;98.16;102437.69;5005284;28;20033;-80
2021/12/20 01:02:41;;;;;;;15.85;3.95;;;;;;;5.11;98.16;102434.44;5005858;28;20041;-80
2021/12/20 01:05:07;;;;;;;10.27;3.72;;;;;;;5.09;98.38;102435.44;5000165;28;20653;-81
2021/12/20 01:07:33;;;;;;;15.30;4.47;;;;;;;5.12;98.15;102422.41;5006188;28;20026;-80
2021/12/20 01:10:02;;;;;;;12.40;3.60;;;;;;;5.10;98.51;102431.94;5015924;28;20407;-79
2021/12/20 01:12:33;;;;;;;28.52;6.03;;;;;;;5.00;98.56;102441.91;5003371;28;20056;-80
2021/12/20 01:15:00;;;;;;;13.57;3.25;;;;;;;5.04;98.28;102433.94;4989647;28;20437;-80
2021/12/20 01:17:27;;;;;;;9.75;3.40;;;;;;;5.02;98.29;102433.19;5011585;28;20037;-81
2021/12/20 01:19:53;;;;;;;13.02;3.47;;;;;;;5.00;98.24;102434.19;5000953;28;20038;-81
2021/12/20 01:22:19;;;;;;;12.48;4.10;;;;;;;4.99;98.30;102438.50;4974306;28;20038;-80
2021/12/20 01:24:44;;;;;;;25.85;4.90;;;;;;;5.00;98.70;102434.19;5000030;28;20042;-79
2021/12/20 01:27:10;;;;;;;12.65;3.75;;;;;;;5.06;98.43;102423.56;5013398;28;20034;-81
2021/12/20 01:29:35;;;;;;;15.98;3.80;;;;;;;5.08;98.03;102434.59;5006750;28;20095;-80
2021/12/20 01:32:01;;;;;;;12.63;3.25;;;;;;;5.03;98.34;102434.03;4991439;28;20038;-80
2021/12/20 01:34:26;;;;;;;18.23;4.03;;;;;;;5.11;98.51;102437.03;4987971;28;20088;-80
2021/12/20 01:36:52;;;;;;;16.90;4.70;;;;;;;5.09;98.16;102430.31;5018757;28;20077;-80
2021/12/20 01:39:17;;;;;;;16.90;4.03;;;;;;;5.15;98.32;102438.50;5028001;28;20030;-80
2021/12/20 01:41:44;;;;;;;14.30;4.05;;;;;;;5.05;98.20;102445.88;5015975;28;20038;-80
2021/12/20 01:44:12;;;;;;;10.02;3.80;;;;;;;5.01;98.69;102441.81;4989041;28;20038;-80
2021/12/20 01:46:37;;;;;;;11.93;3.80;;;;;;;5.00;99.16;102436.75;5018784;28;20041;-80
2021/12/20 01:49:06;;;;;;;16.20;4.45;;;;;;;4.95;99.28;102433.59;5024610;28;20042;-79
2021/12/20 01:54:03;;;;;;;15.23;3.97;;;;;;;4.92;99.54;102431.19;5005788;28;20068;-80
2021/12/20 01:56:32;;;;;;;20.02;5.65;;;;;;;4.91;99.50;102432.91;5031801;28;20102;-79
2021/12/20 01:59:02;;;;;;;14.15;4.70;;;;;;;4.94;99.84;102425.03;5024961;28;20034;-80
2021/12/20 02:01:28;;;;;;;14.50;4.55;;;;;;;4.96;99.88;102428.38;5013655;28;20134;-80
2021/12/20 02:03:58;;;;;;;12.18;4.47;;;;;;;4.98;99.59;102421.41;5013802;28;20046;-80
2021/12/20 02:09:19;;;;;;;18.33;4.88;;;;;;;4.91;99.63;102424.38;5001193;28;20046;-80
2021/12/20 02:11:48;;;;;;;15.38;4.13;;;;;;;4.92;100.00;102419.16;5009039;28;20076;-80
2021/12/20 02:14:15;;;;;;;22.27;5.40;;;;;;;4.94;99.84;102426.78;4991677;28;20050;-80
2021/12/20 02:16:42;;;;;;;13.43;4.97;;;;;;;4.92;99.77;102428.63;5005612;28;20089;-80
2021/12/20 02:19:15;;;;;;;15.75;4.95;;;;;;;4.91;100.00;102417.47;4994145;28;20052;-80
2021/12/20 02:21:42;;;;;;;14.50;5.20;;;;;;;4.90;100.00;102426.13;5005545;28;20047;-80
2021/12/20 02:24:08;;;;;;;16.02;4.50;;;;;;;4.87;100.00;102429.66;4995938;28;20115;-80
2021/12/20 02:26:33;;;;;;;15.30;4.55;;;;;;;4.87;100.00;102433.97;4992295;28;20576;-80
2021/12/20 02:29:04;;;;;;;14.68;4.40;;;;;;;4.91;100.00;102429.50;5008667;28;20030;-80
2021/12/20 02:37:40;;;;;;;24.88;4.68;;;;;;;4.95;99.68;102425.88;4997632;28;20058;-80
2021/12/20 02:39:47;;;;;;;18.95;4.10;;;;;;;4.88;99.52;102423.63;5001559;28;20105;-80
2021/12/20 02:42:16;;;;;;;13.70;4.15;;;;;;;4.85;100.00;102416.06;4989021;28;20026;-80
2021/12/20 02:44:47;;;;;;;16.35;5.05;;;;;;;4.87;99.74;102426.25;4992093;28;20046;-80
2021/12/20 02:47:25;;;;;;;17.20;3.90;;;;;;;4.87;100.00;102421.13;4989588;28;20077;-80
2021/12/20 02:49:51;;;;;;;20.45;5.00;;;;;;;4.90;99.75;102426.13;5009317;28;20077;-80
2021/12/20 02:52:16;;;;;;;15.23;3.65;;;;;;;4.81;99.53;102424.03;4992873;28;20484;-80
2021/12/20 02:54:42;;;;;;;17.90;3.97;;;;;;;4.91;99.22;102424.38;4992277;28;20038;-80
2021/12/20 02:57:07;;;;;;;16.77;3.85;;;;;;;4.93;98.38;102415.66;4991615;28;20053;-79
2021/12/20 02:59:33;;;;;;;21.27;3.42;;;;;;;4.93;98.15;102419.97;5016173;28;20041;-80
2021/12/20 03:02:04;;;;;;;17.05;3.75;;;;;;;4.89;98.41;102419.31;5004131;28;20034;-80
2021/12/20 03:04:29;;;;;;;16.17;3.20;;;;;;;4.92;98.25;102420.91;4975825;28;20042;-80
2021/12/20 03:06:58;;;;;;;18.63;3.65;;;;;;;4.87;98.51;102423.69;4993065;28;20037;-80
2021/12/20 03:09:31;;;;;;;16.05;3.28;;;;;;;4.93;98.38;102430.25;4985200;28;20034;-80
2021/12/20 03:11:59;;;;;;;13.13;3.15;;;;;;;4.93;98.21;102425.94;4987336;28;20046;-80
2021/12/20 03:14:40;;;;;;;18.63;3.63;;;;;;;4.96;97.90;102424.97;5016667;28;20033;-81
2021/12/20 03:17:05;;;;;;;20.98;3.83;;;;;;;5.02;97.00;102416.94;4980114;28;20137;-80
2021/12/20 03:19:31;;;;;;;18.33;3.28;;;;;;;4.90;97.33;102423.53;4991253;28;20496;-80
2021/12/20 03:21:57;;;;;;;14.68;4.10;;;;;;;4.90;97.36;102415.84;4989773;28;20030;-80
2021/12/20 03:24:23;;;;;;;23.52;3.28;;;;;;;4.86;97.45;102419.47;4995908;28;20080;-80
2021/12/20 03:26:48;;;;;;;18.13;3.65;;;;;;;4.78;97.74;102416.47;5007845;28;20030;-80
2021/12/20 03:29:14;;;;;;;25.17;4.28;;;;;;;4.78;98.31;102425.00;4992760;28;20023;-80
2021/12/20 03:31:40;;;;;;;17.92;3.58;;;;;;;4.81;98.11;102424.03;5011702;28;20030;-80
2021/12/20 03:34:06;;;;;;;17.48;3.70;;;;;;;4.80;98.02;102420.63;4999481;28;20030;-80
2021/12/20 03:36:32;;;;;;;24.60;3.92;;;;;;;4.83;97.09;102430.72;5000757;28;20168;-80
2021/12/20 03:38:58;;;;;;;21.48;3.60;;;;;;;4.77;96.52;102433.63;4998916;28;20042;-80
2021/12/20 03:41:24;;;;;;;21.08;3.15;;;;;;;4.74;97.07;102432.94;5013191;28;20058;-80
2021/12/20 03:43:49;;;;;;;19.42;3.22;;;;;;;4.71;97.27;102433.94;4975741;28;20536;-80
2021/12/20 03:46:15;;;;;;;16.00;2.70;;;;;;;4.69;97.42;102428.06;4997159;28;20057;-80
2021/12/20 03:48:41;;;;;;;13.85;2.80;;;;;;;4.69;97.02;102425.47;5001340;28;20038;-80
2021/12/20 03:51:06;;;;;;;15.75;3.33;;;;;;;4.68;97.31;102431.53;4980652;28;20038;-80
2021/12/20 03:53:33;;;;;;;14.07;2.92;;;;;;;4.66;97.14;102423.06;5000074;28;20126;-80
2021/12/20 03:55:59;;;;;;;21.17;3.35;;;;;;;4.70;96.80;102426.31;5016788;28;20566;-79
2021/12/20 03:58:27;;;;;;;28.77;3.30;;;;;;;4.71;95.75;102423.66;4993530;28;20125;-80
2021/12/20 04:00:55;;;;;;;14.07;2.67;;;;;;;4.65;94.56;102419.66;5003127;28;20035;-80
2021/12/20 04:03:20;;;;;;;19.80;2.83;;;;;;;4.67;94.39;102423.00;5010916;28;20113;-80
2021/12/20 04:05:46;;;;;;;21.42;2.50;;;;;;;4.65;93.68;102418.81;5016280;28;20578;-80
2021/12/20 04:08:11;;;;;;;28.63;3.63;;;;;;;4.72;93.18;102420.16;5008942;28;20049;-80
2021/12/20 04:10:37;;;;;;;23.85;3.05;;;;;;;4.75;92.69;102417.44;4978311;28;20509;-80
2021/12/20 04:13:03;;;;;;;17.42;3.55;;;;;;;4.71;92.98;102426.22;5008740;28;20038;-80
2021/12/20 04:15:28;;;;;;;25.30;2.78;;;;;;;4.70;92.95;102422.00;5007888;28;20100;-80
2021/12/20 04:17:54;;;;;;;13.80;2.58;;;;;;;4.67;93.35;102430.69;4991343;28;20101;-80
2021/12/20 04:20:20;;;;;;;17.23;3.45;;;;;;;4.67;93.68;102425.56;4993072;28;20042;-80
2021/12/20 04:22:45;;;;;;;15.93;3.03;;;;;;;4.67;93.71;102424.69;5015294;28;20045;-79
2021/12/20 04:25:11;;;;;;;14.45;2.53;;;;;;;4.67;93.82;102424.69;5009654;28;20049;-80
2021/12/20 04:27:37;;;;;;;12.05;2.55;;;;;;;4.65;93.94;102429.94;5012194;28;20034;-80
2021/12/20 04:30:09;;;;;;;19.13;3.13;;;;;;;4.70;94.33;102423.75;5020794;28;20034;-80
2021/12/20 04:32:39;;;;;;;17.42;2.72;;;;;;;4.71;93.43;102423.66;5008278;28;20105;-80
2021/12/20 04:35:06;;;;;;;19.67;2.72;;;;;;;4.66;93.96;102430.78;4994683;28;20080;-80
2021/12/20 04:37:31;;;;;;;17.50;3.13;;;;;;;4.65;94.37;102434.22;4999328;28;20065;-80
2021/12/20 04:39:58;;;;;;;18.10;2.65;;;;;;;4.63;94.40;102426.63;5016787;28;20737;-80
2021/12/20 04:42:23;;;;;;;17.52;3.55;;;;;;;4.63;94.60;102430.91;5007757;28;20045;-80
2021/12/20 04:44:48;;;;;;;16.10;3.00;;;;;;;4.63;94.86;102434.34;4990936;28;20556;-80
2021/12/20 04:47:14;;;;;;;17.33;2.85;;;;;;;4.62;94.85;102435.22;5010566;28;20033;-80
2021/12/20 04:49:39;;;;;;;18.00;2.75;;;;;;;4.65;95.13;102429.09;5023397;28;20037;-80
2021/12/20 04:52:05;;;;;;;21.63;3.65;;;;;;;4.67;94.13;102438.41;4983767;28;20041;-80
2021/12/20 04:54:31;;;;;;;16.33;2.70;;;;;;;4.64;94.29;102423.13;4979766;28;20104;-80
2021/12/20 04:56:56;;;;;;;12.85;3.38;;;;;;;4.70;93.93;102432.28;4999582;28;20054;-80
2021/12/20 04:59:22;;;;;;;17.48;3.15;;;;;;;4.65;93.15;102435.09;5004867;28;20049;-80
2021/12/20 05:01:47;;;;;;;20.88;3.80;;;;;;;4.65;91.79;102437.66;5008444;28;20046;-80
2021/12/20 05:04:13;;;;;;;24.10;4.30;;;;;;;4.65;90.60;102437.66;5005245;28;20030;-80
2021/12/20 05:06:38;;;;;;;28.50;3.55;;;;;;;4.78;90.58;102435.28;4992372;28;20026;-80
2021/12/20 05:09:05;;;;;;;25.27;3.42;;;;;;;4.68;85.54;102428.94;5011143;28;20042;-80
2021/12/20 05:11:33;;;;;;;22.38;3.83;;;;;;;4.70;86.25;102429.69;5009142;28;20104;-80
2021/12/20 05:13:59;;;;;;;25.02;3.00;;;;;;;4.68;88.05;102437.47;4992562;28;20396;-80
2021/12/20 05:16:24;;;;;;;28.92;3.05;;;;;;;4.72;88.88;102427.06;5013707;28;20546;-80
2021/12/20 05:18:50;;;;;;;15.25;2.42;;;;;;;4.73;89.35;102424.41;4990179;28;20034;-79
2021/12/20 05:21:15;;;;;;;13.38;2.55;;;;;;;4.72;89.92;102424.50;5009904;28;20413;-80
2021/12/20 05:23:41;;;;;;;26.27;2.75;;;;;;;4.67;90.80;102420.41;4974932;28;20114;-80
2021/12/20 05:26:06;;;;;;;19.55;3.00;;;;;;;4.65;90.89;102421.38;4993756;28;20038;-79
2021/12/20 05:28:32;;;;;;;26.92;3.95;;;;;;;4.61;91.15;102417.31;4996877;28;20062;-80
2021/12/20 05:30:57;;;;;;;17.20;5.03;;;;;;;4.60;91.42;102426.78;5024125;28;20547;-80
2021/12/20 05:33:23;;;;;;;15.07;3.75;;;;;;;4.58;91.51;102422.63;5008871;28;20031;-80
2021/12/20 05:35:50;;;;;;;19.98;4.05;;;;;;;4.53;91.96;102419.44;5001392;28;20038;-80
2021/12/20 05:38:16;;;;;;;21.52;4.78;;;;;;;4.49;92.34;102417.03;5005899;28;20038;-80
2021/12/20 05:40:41;;;;;;;17.60;3.22;;;;;;;4.48;92.56;102419.66;5018509;28;20038;-80
2021/12/20 05:43:07;;;;;;;14.23;3.15;;;;;;;4.46;92.78;102422.34;5011424;28;20508;-80
2021/12/20 05:45:33;;;;;;;19.85;4.20;;;;;;;4.44;91.41;102420.72;5004066;28;20120;-80
2021/12/20 05:47:59;;;;;;;11.55;2.80;;;;;;;4.45;91.18;102423.22;4983129;28;20412;-80
2021/12/20 05:50:24;;;;;;;19.02;3.25;;;;;;;4.45;91.37;102425.78;5022785;28;20026;-80
2021/12/20 05:52:50;;;;;;;17.63;2.75;;;;;;;4.44;91.55;102428.44;5017230;28;20503;-79
2021/12/20 05:55:17;;;;;;;22.08;2.53;;;;;;;4.43;91.51;102429.34;5003817;28;20042;-79
2021/12/20 05:57:43;;;;;;;17.23;2.75;;;;;;;4.42;91.61;102432.81;4988846;28;20038;-80
2021/12/20 06:00:15;;;;;;;13.40;2.88;;;;;;;4.41;91.42;102432.00;5020406;28;20030;-80
2021/12/20 06:02:42;;;;;;;16.02;3.13;;;;;;;4.41;90.99;102436.31;4993329;28;20078;-80
2021/12/20 06:05:09;;;;;;;16.83;2.65;;;;;;;4.40;91.39;102437.22;5009635;28;20076;-80
2021/12/20 06:07:38;;;;;;;17.60;2.63;;;;;;;4.39;91.39;102432.97;5011537;28;20038;-79
2021/12/20 06:10:05;;;;;;;16.67;2.10;;;;;;;4.39;90.73;102438.09;4994984;28;20042;-80
2021/12/20 06:12:31;;;;;;;14.63;2.72;;;;;;;4.36;90.49;102441.66;5017719;28;20061;-80
2021/12/20 06:14:56;;;;;;;19.60;2.92;;;;;;;4.36;90.41;102448.53;5010354;28;20503;-79
2021/12/20 06:17:22;;;;;;;20.42;2.55;;;;;;;4.35;89.99;102452.00;4994392;28;20091;-80
2021/12/20 06:19:47;;;;;;;22.13;2.47;;;;;;;4.34;90.15;102456.31;4984047;28;20043;-80
2021/12/20 06:22:13;;;;;;;26.08;3.55;;;;;;;4.33;90.07;102459.78;4989755;28;20073;-80
2021/12/20 06:24:38;;;;;;;17.42;2.72;;;;;;;4.32;89.88;102463.28;5002721;28;20045;-79
2021/12/20 06:27:04;;;;;;;22.63;3.80;;;;;;;4.33;90.03;102461.53;4993274;28;20030;-79
2021/12/20 06:29:30;;;;;;;16.05;3.47;;;;;;;4.31;90.52;102451.31;5018227;28;20049;-79
2021/12/20 06:31:55;;;;;;;14.27;2.65;;;;;;;4.30;90.65;102444.53;5001103;28;20026;-80
2021/12/20 06:34:21;;;;;;;20.52;2.30;;;;;;;4.30;90.92;102457.38;5012029;28;20042;-79
2021/12/20 06:36:46;;;;;;;14.75;2.58;;;;;;;4.28;90.27;102461.75;5006675;28;20042;-79
2021/12/20 06:39:12;;;;;;;20.38;3.08;;;;;;;4.27;90.38;102455.78;5013274;28;20042;-79
2021/12/20 06:41:37;;;;;;;16.88;2.78;;;;;;;4.29;89.86;102463.41;5012576;28;20038;-80
2021/12/20 06:44:04;;;;;;;22.40;3.63;;;;;;;4.29;90.13;102464.25;4998491;28;20429;-79
2021/12/20 06:46:32;;;;;;;21.02;3.35;;;;;;;4.30;89.88;102465.09;4995612;28;20476;-79
2021/12/20 06:48:58;;;;;;;19.73;3.03;;;;;;;4.30;90.38;102467.66;5017792;28;20101;-79
2021/12/20 06:51:23;;;;;;;15.10;2.78;;;;;;;4.32;90.57;102459.88;4994947;28;20030;-79
2021/12/20 06:53:49;;;;;;;24.92;2.80;;;;;;;4.33;90.50;102470.06;4996904;28;20084;-79
2021/12/20 06:56:14;;;;;;;18.40;2.38;;;;;;;4.29;90.59;102477.09;5010474;28;20038;-79
2021/12/20 06:58:40;;;;;;;21.08;3.38;;;;;;;4.25;90.91;102472.16;5011661;28;20096;-80
2021/12/20 07:01:05;;;;;;;12.88;2.67;;;;;;;4.24;90.98;102473.91;4996658;28;20030;-79
2021/12/20 07:03:31;;;;;;;14.27;3.38;;;;;;;4.24;91.34;102478.22;5001661;28;20043;-79
2021/12/20 07:05:57;;;;;;;17.63;3.92;;;;;;;4.24;91.76;102475.66;5013094;28;20030;-79
2021/12/20 07:08:22;;;;;;;19.52;3.83;;;;;;;4.24;92.02;102481.63;5012219;28;20026;-80
2021/12/20 07:10:48;;;;;;;19.98;3.42;;;;;;;4.25;91.73;102479.88;5012467;28;20030;-80
2021/12/20 07:13:15;;;;;;;20.23;3.53;;;;;;;4.23;92.10;102474.81;4994002;28;20046;-79
2021/12/20 07:15:40;;;;;;;20.35;4.20;;;;;;;4.24;91.61;102488.50;4991691;28;20031;-79
2021/12/20 07:18:06;;;;;;;17.25;3.47;;;;;;;4.23;91.39;102487.66;4991531;28;20449;-79
2021/12/20 07:20:32;;;;;;;19.20;3.10;;;;;;;4.25;91.11;102492.72;4998845;28;20055;-79
2021/12/20 07:22:57;;;;;;;19.92;4.18;;;;;;;4.24;91.31;102488.50;4991593;28;20038;-79
2021/12/20 07:25:23;;;;;;;19.90;3.20;;;;;;;4.21;91.28;102492.03;4982258;28;20034;-79
2021/12/20 07:27:50;;;;;;;20.50;3.40;;;;;;;4.23;91.09;102490.22;4999715;28;20498;-80
2021/12/20 07:30:17;;;;;;;28.88;4.35;;;;;;;4.24;91.19;102488.50;5010064;28;20500;-80
2021/12/20 07:32:43;;;;;;;22.15;4.82;;;;;;;4.24;90.21;102496.19;5017646;28;20070;-80
2021/12/20 07:35:09;;;;;;;18.50;3.60;;;;;;;4.27;89.69;102491.72;4976858;28;20241;-79
2021/12/20 07:37:35;;;;;;;17.80;3.42;;;;;;;4.30;89.25;102493.34;5004561;28;20034;-80
2021/12/20 07:40:01;;;;;;;23.23;4.93;;;;;;;4.33;90.35;102497.47;4998385;28;20042;-79
2021/12/20 07:42:26;;;;;;;20.80;3.25;;;;;;;4.29;89.92;102494.22;4978069;28;20420;-79
2021/12/20 07:44:52;;;;;;;20.30;3.67;;;;;;;4.26;90.59;102492.66;4986036;28;20045;-79
2021/12/20 07:47:18;;;;;;;21.92;3.95;;;;;;;4.24;91.13;102494.47;5012503;28;20037;-80
2021/12/20 07:49:43;;;;;;;18.63;3.88;;;;;;;4.25;91.16;102503.81;5009647;28;20038;-80
2021/12/20 07:52:09;;;;;;;21.92;4.90;;;;;;;4.22;90.53;102505.69;5002011;28;20034;-79
2021/12/20 07:54:34;;;;;;;52.75;15.75;;;;;;;4.21;90.44;102507.44;5020722;28;20034;-79
2021/12/20 07:57:00;;;;;;;33.20;11.27;;;;;;;4.21;90.57;102506.59;5001379;28;20047;-80
2021/12/20 07:59:25;;;;;;;27.38;5.95;;;;;;;4.18;90.64;102514.44;4998877;28;20026;-80
2021/12/20 08:01:51;;;;;;;20.75;4.50;;;;;;;4.16;90.86;102518.81;5016449;28;20042;-79
2021/12/20 08:04:16;;;;;;;21.85;3.90;;;;;;;4.15;91.19;102510.31;5010832;28;20053;-79
2021/12/20 08:06:45;;;;;;;23.38;3.85;;;;;;;4.15;91.04;102506.91;5013417;28;20038;-78
2021/12/20 08:09:11;;;;;;;17.75;3.22;;;;;;;4.16;91.41;102513.69;5017373;28;20046;-79
2021/12/20 08:11:38;;;;;;;12.63;2.92;;;;;;;4.15;91.34;102510.31;5003666;28;20034;-79
2021/12/20 08:14:04;;;;;;;16.83;2.60;;;;;;;4.16;91.42;102509.38;5025623;28;20041;-80
2021/12/20 08:16:29;;;;;;;21.95;3.15;;;;;;;4.16;91.25;102508.56;5004295;28;20041;-79
2021/12/20 08:18:55;;;;;;;18.92;3.08;;;;;;;4.16;91.74;102519.66;5001299;28;20034;-80
2021/12/20 08:21:21;;;;;;;22.10;3.78;;;;;;;4.15;91.84;102514.63;4984565;28;20034;-80
2021/12/20 08:23:47;;;;;;;18.95;3.00;;;;;;;4.15;91.91;102522.31;5003526;28;20034;-79
2021/12/20 08:26:13;;;;;;;14.70;2.85;;;;;;;4.13;91.62;102517.25;5017595;28;20120;-79
2021/12/20 08:28:39;;;;;;;21.67;3.95;;;;;;;4.12;91.97;102520.69;5018068;28;20026;-79
2021/12/20 08:31:08;;;;;;;13.85;3.00;;;;;;;4.11;91.90;102526.75;5017330;28;20121;-79
2021/12/20 08:33:34;;;;;;;15.48;2.67;;;;;;;4.09;92.06;102524.25;5002053;28;20551;-79
2021/12/20 08:36:02;;;;;;;25.30;3.40;;;;;;;4.09;91.93;102520.88;4989320;28;20046;-79
2021/12/20 08:38:28;;;;;;;15.13;2.75;;;;;;;4.07;92.21;102528.63;5019568;28;20038;-79
2021/12/20 08:40:53;;;;;;;13.98;2.63;;;;;;;4.06;91.89;102521.00;5013041;28;20034;-79
2021/12/20 08:43:19;;;;;;;18.52;3.53;;;;;;;4.05;92.05;102517.59;4980201;28;20026;-79
2021/12/20 08:45:45;;;;;;;19.63;3.08;;;;;;;4.04;91.84;102521.06;5010329;28;20038;-79
2021/12/20 08:48:11;;;;;;;16.70;3.83;;;;;;;4.02;92.35;102522.06;4991305;28;20030;-79
2021/12/20 08:50:37;;;;;;;19.70;3.78;;;;;;;4.02;92.17;102528.00;4996764;28;20037;-80
2021/12/20 08:53:02;;;;;;;25.30;4.45;;;;;;;4.01;92.35;102530.63;5004283;28;20453;-80
2021/12/20 08:55:28;;;;;;;32.63;4.72;;;;;;;3.98;91.45;102534.19;5013551;28;20041;-79
2021/12/20 08:57:54;;;;;;;29.83;4.70;;;;;;;4.05;91.14;102533.00;4997735;28;20041;-79
2021/12/20 09:00:23;;;;;;;25.23;3.95;;;;;;;4.01;90.53;102531.50;4983783;28;20116;-79
2021/12/20 09:02:49;;;;;;;29.35;5.60;;;;;;;4.00;90.79;102545.22;4994543;28;20030;-79
2021/12/20 09:05:16;;;;;;;27.45;4.30;;;;;;;3.98;91.04;102538.50;5006219;28;20121;-79
2021/12/20 09:07:42;;;;;;;25.90;5.38;;;;;;;4.04;90.36;102539.03;5007438;28;20030;-79
2021/12/20 09:10:11;;;;;;;28.17;5.15;;;;;;;4.01;90.31;102539.19;4993875;28;20038;-79
2021/12/20 09:12:38;;;;;;;31.42;4.38;;;;;;;3.96;90.88;102546.28;4988568;28;20030;-79
2021/12/20 09:15:05;;;;;;;31.02;5.25;;;;;;;3.95;91.24;102548.91;5016708;28;20038;-79
2021/12/20 09:17:31;;;;;;;38.60;5.43;;;;;;;3.95;91.20;102551.47;4993105;28;20042;-80
2021/12/20 09:19:56;;;;;;;42.92;5.40;;;;;;;3.96;91.16;102559.09;4991414;28;20165;-80
2021/12/20 09:22:27;;;;;;;33.33;5.72;;;;;;;3.94;90.87;102548.06;5010792;28;20041;-79
2021/12/20 09:24:52;;;;;;;26.58;5.03;;;;;;;3.95;91.64;102546.34;5006952;28;20043;-79
2021/12/20 09:27:18;;;;;;;34.03;7.15;;;;;;;3.99;91.28;102542.72;5014496;28;20048;-79
2021/12/20 09:29:43;;;;;;;32.35;4.90;;;;;;;3.98;91.43;102557.28;5009570;28;20627;-79
2021/12/20 09:32:09;;;;;;;35.45;6.53;;;;;;;3.98;91.67;102554.72;5008067;28;20516;-79
2021/12/20 09:34:35;;;;;;;27.10;5.53;;;;;;;3.99;91.97;102558.13;5011248;28;20030;-79
2021/12/20 09:37:04;;;;;;;29.90;6.70;;;;;;;4.00;91.88;102565.75;4986930;28;20509;-80
2021/12/20 09:39:31;;;;;;;30.00;4.88;;;;;;;4.00;92.36;102560.63;4999573;28;20393;-79
2021/12/20 09:42:00;;;;;;;30.20;5.65;;;;;;;4.03;92.24;102565.63;5011684;28;20648;-80
2021/12/20 09:44:26;;;;;;;35.45;5.53;;;;;;;4.08;92.41;102568.78;4979344;28;20451;-79
2021/12/20 09:46:55;;;;;;;32.70;6.75;;;;;;;4.06;92.28;102575.75;5007037;28;20121;-80
2021/12/20 09:49:21;;;;;;;30.58;5.93;;;;;;;4.16;92.17;102578.72;5014796;28;20054;-79
2021/12/20 09:51:47;;;;;;;41.88;6.47;;;;;;;4.13;91.95;102575.47;4993863;28;20677;-80
2021/12/20 09:54:12;;;;;;;44.63;6.20;;;;;;;4.20;91.57;102566.56;5007292;28;20053;-80
2021/12/20 09:56:39;;;;;;;33.17;6.75;;;;;;;4.15;92.24;102574.50;4996424;28;20026;-80
2021/12/20 09:59:08;;;;;;;32.30;6.30;;;;;;;4.13;92.32;102573.72;4999025;28;20054;-80
2021/12/20 10:01:34;;;;;;;41.33;6.00;;;;;;;4.16;91.77;102572.75;5006992;28;20049;-80
2021/12/20 10:04:00;;;;;;;38.28;6.65;;;;;;;4.19;90.75;102564.91;4995181;28;20045;-79
2021/12/20 10:06:25;;;;;;;40.83;7.22;;;;;;;4.23;90.66;102572.38;4997112;28;20034;-79
2021/12/20 10:08:53;;;;;;;29.55;6.80;;;;;;;4.28;90.45;102569.63;4993032;28;20499;-80
2021/12/20 10:11:31;;;;;;;35.35;6.60;;;;;;;4.36;89.80;102570.09;5007487;28;20074;-80
2021/12/20 10:14:26;;;;;;;33.97;6.85;;;;;;;4.28;90.75;102569.63;5007188;28;20485;-80
2021/12/20 10:17:03;;;;;;;47.28;7.78;;;;;;;4.43;90.06;102575.78;5005123;28;20444;-79
2021/12/20 10:19:34;;;;;;;44.80;8.82;;;;;;;4.36;88.65;102577.78;5012970;28;20042;-80
2021/12/20 10:22:20;;;;;;;43.65;7.45;;;;;;;4.30;88.92;102578.09;4995369;28;20042;-79
2021/12/20 10:24:45;;;;;;;28.02;6.20;;;;;;;4.32;89.54;102575.44;5008942;28;20102;-80
2021/12/20 10:27:36;;;;;;;41.90;7.28;;;;;;;4.28;89.61;102580.72;4995892;28;20520;-80
2021/12/20 10:30:26;;;;;;;42.55;6.03;;;;;;;4.29;90.18;102572.13;5005598;28;20452;-79
2021/12/20 10:32:53;;;;;;;61.47;7.93;;;;;;;4.32;90.03;102571.13;5008204;28;20046;-80
2021/12/20 10:35:41;;;;;;;40.60;6.90;;;;;;;4.40;90.01;102574.16;5006153;28;20089;-80
2021/12/20 10:38:25;;;;;;;33.58;7.45;;;;;;;4.40;88.71;102573.34;4988576;28;20076;-81
2021/12/20 10:40:55;;;;;;;39.63;6.03;;;;;;;4.31;89.49;102568.63;5005438;28;20042;-79
2021/12/20 10:43:35;;;;;;;32.50;6.03;;;;;;;4.39;89.01;102572.53;5018447;28;20443;-80
2021/12/20 10:46:14;;;;;;;35.85;6.53;;;;;;;4.35;89.54;102572.72;4992864;28;20080;-78
2021/12/20 10:48:41;;;;;;;42.92;6.57;;;;;;;4.40;89.52;102573.34;4993305;28;20038;-78
2021/12/20 10:51:20;;;;;;;44.38;8.63;;;;;;;4.36;89.25;102574.41;5013308;28;20500;-79
2021/12/20 10:53:57;;;;;;;48.30;7.32;;;;;;;4.38;89.39;102564.88;4979171;28;20085;-79
2021/12/20 10:56:24;;;;;;;33.08;6.03;;;;;;;4.40;89.33;102561.31;5025924;28;20038;-79
2021/12/20 10:58:50;;;;;;;42.28;6.43;;;;;;;4.37;89.59;102564.06;4998440;28;20125;-79
2021/12/20 11:03:09;;;;;;;41.97;7.25;;;;;;;4.37;89.31;102565.78;5014701;28;20138;-80
2021/12/20 11:04:38;;;;;;;40.55;8.20;;;;;;;4.41;88.71;102555.28;5008031;28;20046;-79
2021/12/20 11:09:40;;;;;;;38.65;5.53;;;;;;;4.54;86.31;102552.97;4992632;28;20409;-84
2021/12/20 11:12:08;;;;;;;38.70;6.50;;;;;;;4.50;86.56;102554.00;5005348;28;20086;-85
2021/12/20 11:14:40;;;;;;;38.95;8.18;;;;;;;4.48;87.12;102553.25;5001000;28;20022;-85
2021/12/20 11:17:07;;;;;;;32.20;6.70;;;;;;;4.46;87.55;102548.22;5007183;28;20050;-85
2021/12/20 11:19:35;;;;;;;23.30;4.75;;;;;;;4.45;87.29;102559.38;5003546;28;20048;-85
2021/12/20 11:22:04;;;;;;;32.72;5.20;;;;;;;4.43;86.76;102550.09;4986733;28;20034;-85
2021/12/20 11:24:56;;;;;;;37.78;6.28;;;;;;;4.45;87.34;102554.25;4979993;28;20471;-84
2021/12/20 11:27:24;;;;;;;31.23;5.22;;;;;;;4.62;84.17;102550.88;4970485;28;20050;-84
2021/12/20 11:29:51;;;;;;;26.15;4.30;;;;;;;4.69;83.25;102553.97;5008089;28;20397;-85
2021/12/20 11:32:20;;;;;;;28.83;5.30;;;;;;;4.68;83.01;102553.13;4987060;28;20030;-84
2021/12/20 11:34:46;;;;;;;33.03;5.32;;;;;;;4.61;84.60;102556.91;4997219;28;20598;-84
2021/12/20 11:37:14;;;;;;;30.35;5.63;;;;;;;4.57;85.31;102549.41;4986817;28;20063;-84
2021/12/20 11:39:40;;;;;;;36.38;6.32;;;;;;;4.56;85.88;102547.75;5008413;28;20034;-84
2021/12/20 11:42:07;;;;;;;28.30;5.40;;;;;;;4.56;85.82;102550.31;4974525;28;20520;-83